Aviation Digital Data Service (ADDS)

Output produced by METARs form (2058 UTC 22 June 2018)
found at http://aviationweather.gov/adds/metars/
 
KSNS 222053Z 31011KT 10SM CLR 22/12 A2990 RMK AO2 SLP135 T02220117 58016 $
KMRY 222054Z 31009KT 9SM CLR 18/12 A2994 RMK AO2 SLP149 T01780117 58015
KSJC 222053Z VRB06KT 10SM FEW080 31/08 A2988 RMK AO2 SLP116 T03110078 58021 $
KRHV 222050Z 29008KT 10SM SKC 33/08 A2986
KSFO 222003Z 30014KT 10SM FEW200 25/12 A2991 RMK AO2 WSHFT 1943 T02500117 $
KLVK 222053Z 20006KT 10SM CLR 35/09 A2986 RMK AO2 SLP107 T03500094 58023
KMCE 222053Z AUTO 34008KT 290V360 10SM CLR 36/08 A2984 RMK AO2 SLP103 T03560083 58017